Denis Mikheev

Chief Scout - CSKA Moscow
4 Jun 2028
Sunday
Process

Personality

Adaptability (19) Ambition (13) Controversy (5) Loyalty (17) Pressure (13) Professionalism (18) Sportsmanship (10) Temperament (8)

Profile

Coaching Style Democratic
License National B
Determination 9
Man Management 5
Motivating 13
Discipline 5
Job Satisfaction
100%
Fatigue
0%
Role Chief Scout
Wage 31.6K p/w
Contract 14.03.2030

Performance

Behaviour Good
Training Effectiveness
56%
Player Development
75%
Injury Prevention
65%
Tactical Implementation
60%

Currently Monitoring

54
Player Club Status Ability Confidence Watched Last Observed Latest Vote
Harrison Burrows Sheffield United Active 127 / 134 40% 1 21.02.2028 -
Edoardo Bove Watford Active 138 / 138 40% 1 21.02.2028 -
Tristan Crama Chesterfield Active 140 / 131 40% 1 18.02.2028 -
Luke McNally Bristol City Active 145 / 136 40% 1 18.02.2028 -
Reda Khadra Zenit Active 129 / 130 66% 1 14.02.2028 Approve
Luiz Henrique Barcelona Active 142 / 143 70% 1 25.01.2028 Approve
Rahid Guseynov Universitario Active 113 / 114 66% 1 25.01.2028 Approve
German Onugkha Dinamo Moscow Active 119 / 119 66% 1 25.01.2028 Approve
Felipe Augusto Real Sociedad Active 131 / 135 66% 1 25.01.2028 Approve
Gustavo Mantuan Zenit Lost 151 / 134 40% 1 25.01.2028 -
Christian Krasnodar Active 127 / 137 40% 2 07.09.2027 Needs More Info
Diego Luna Real Salt Lake Active 127 / 131 40% 1 07.09.2027 Needs More Info
Veldin Hodža Rubin Active 119 / 128 40% 1 07.09.2027 Needs More Info
Nicolás Paz San Martín SJ Active 114 / 121 40% 2 06.09.2027 -
Igor Diveev Zenit Active 120 / 135 40% 1 03.09.2027 -
Jesús Vázquez Valencia Active 137 / 139 40% 1 02.09.2027 -
Nikita Krivtsov Krasnodar Active 119 / 133 40% 1 01.09.2027 -
Victor Melekhin Rostov Active 118 / 127 40% 1 01.09.2027 -
Merlin Röhl Everton Active 142 / 147 40% 1 31.08.2027 -
Diego Costa Rubin Active 144 / 139 40% 1 27.08.2027 -
Arsen Adamov Akhmat Grozny Active 117 / 119 40% 1 26.08.2027 -
Alexandr Siljanov Lokomotiv Moscow Active 134 / 130 40% 1 24.08.2027 -
Elias Baum Eintracht Frankfurt Active 134 / 136 40% 1 21.08.2027 -
Yannik Engelhardt SC Freiburg Active 133 / 144 40% 1 21.08.2027 -
Lukas Engel Real Salt Lake Active 113 / 125 40% 1 20.08.2027 -
Saël Kumbedi VfL Wolfsburg Active 141 / 137 40% 2 18.08.2027 -
Nadir Zortea Bologna Active 132 / 144 40% 2 17.08.2027 -
Chema Andrés VfB Stuttgart Active 139 / 147 40% 1 17.08.2027 -
Konstantin Tyukavin Lokomotiv Moscow Active 150 / 141 40% 1 14.08.2027 -
Javi Rueda Celta Active 138 / 136 40% 2 13.08.2027 -
Han-Noah Massengo FC Augsburg Active 142 / 142 40% 1 11.08.2027 -
Christ Inao Oulaï Fiorentina Active 135 / 141 40% 1 10.08.2027 -
Brodie Spencer Oxford United Active 137 / 131 40% 2 08.08.2027 -
Giovane Napoli Active 127 / 143 40% 2 06.08.2027 -
Alex Bangura Middlesbrough Active 126 / 129 40% 2 04.08.2027 -
Imrân Louza Watford Active 130 / 130 40% 2 31.07.2027 -
Matteo Ruggeri Aston Villa Active 165 / 150 40% 2 28.07.2027 -
Viti Rozada Las Palmas Active 121 / 124 40% 3 26.07.2027 -
Ransford Königsdörffer Mainz 05 Active 141 / 137 40% 1 23.07.2027 -
Morgan Whittaker Middlesbrough Active 147 / 137 40% 1 20.07.2027 -
Mads Roerslev Southampton Active 141 / 125 40% 1 17.07.2027 -
Ollie Scarles West Ham United Active 133 / 135 40% 1 16.07.2027 -
Ilias Akhomach Villarreal Active 154 / 150 40% 1 15.07.2027 -
Rıdvan Yılmaz Besiktas Active 128 / 121 40% 1 12.07.2027 -
Alessandro Zanoli Udinese Active 137 / 134 40% 1 08.07.2027 -
Oscar Fraulo Derby County Active 130 / 128 40% 3 07.07.2027 -
Ryan Giles Hull City Active 124 / 120 40% 1 03.07.2027 -
Wendel Zenit Active 140 / 148 40% 3 02.07.2027 -
Batxi Krasnodar Active 124 / 132 40% 1 30.06.2027 -
Alireza Shojaei Padideh Active 159 / 133 40% 2 24.06.2027 -
Ciprian Dragusin Krasnodar Active 132 / 138 40% 2 24.06.2027 -
Jon Ander Olasagasti Levante Active 116 / 128 40% 1 24.06.2027 -
Rogério Hamburger SV Active 127 / 134 40% 1 17.06.2027 -
Maxim Glushenkov Zenit Active 139 / 144 40% 1 01.08.2026 -